Terminal Aerodrome Forecast
Issued by NWS

Home | Current Version | Previous Version | Text Only | Print | Product List | Glossary On
Versions: 1 2 3 4 5 6 7 8 9 10 11 12 13 14 15 16 17 18 19 20 21
000
FTUS41 KBTV 011700
TAFMPV
TAF
KMPV 011720Z 0118/0218 25007KT P6SM SCT035 SCT060
     FM020000 VRB03KT P6SM FEW035
     FM020600 VRB03KT 1SM BR BKN005
     FM021300 19006KT P6SM SCT035 SCT100=

USA.gov is the U.S. government's official web portal to all federal, state and local government web resources and services.